createdAt,value
2022-12-08T16:13:48.163Z,48.80
2022-12-08T16:13:57.872Z,48.20
2022-12-08T16:14:48.714Z,47.10
2022-12-08T16:15:48.694Z,47.30
2022-12-08T16:15:59.805Z,49.30
2022-12-08T16:16:19.758Z,49.60
2022-12-08T16:17:02.077Z,49.80
2022-12-08T16:17:44.532Z,50.00
2022-12-08T16:18:26.698Z,50.00
2022-12-08T16:19:08.908Z,49.30
2022-12-08T16:19:51.109Z,50.70
2022-12-08T16:21:05.182Z,49.00
2022-12-08T16:21:45.583Z,50.30
2022-12-08T16:22:45.015Z,50.30
2022-12-08T16:23:07.638Z,50.40
2022-12-08T16:23:41.725Z,50.70
2022-12-08T16:24:09.251Z,50.80
2022-12-08T16:24:47.194Z,50.30
2022-12-08T16:25:46.235Z,50.60
2022-12-08T16:28:00.352Z,50.70
2022-12-08T16:28:52.287Z,50.60
2022-12-08T16:29:00.843Z,50.30
2022-12-08T16:29:43.038Z,50.60
2022-12-08T16:30:25.521Z,50.70
2022-12-08T16:31:13.357Z,51.70
2022-12-08T16:31:50.262Z,50.70
2022-12-08T16:32:32.664Z,50.70
2022-12-08T16:33:14.793Z,50.50
2022-12-08T16:33:57.098Z,50.50
2022-12-08T16:34:39.181Z,51.00
2022-12-08T16:35:21.566Z,50.80
2022-12-08T16:36:03.868Z,51.00
2022-12-08T16:36:46.040Z,51.10
2022-12-08T16:37:28.401Z,51.30
2022-12-08T16:38:10.587Z,51.20
2022-12-08T16:38:52.727Z,51.20
2022-12-08T16:39:35.014Z,51.10
2022-12-08T16:40:17.377Z,50.90
2022-12-08T16:40:59.613Z,50.90
2022-12-08T16:41:41.642Z,50.80
2022-12-08T16:42:24.079Z,50.80
2022-12-08T16:44:29.470Z,50.50
2022-12-08T16:45:19.389Z,50.90
2022-12-08T16:46:01.896Z,51.00
2022-12-08T16:46:44.027Z,50.90
2022-12-08T16:47:26.392Z,51.10
2022-12-08T16:48:08.557Z,51.00
2022-12-08T16:48:50.707Z,51.10
2022-12-08T16:49:32.878Z,51.50
2022-12-08T16:50:15.225Z,51.00
2022-12-08T16:50:57.459Z,51.30
2022-12-08T16:51:39.571Z,51.20
2022-12-08T16:52:21.758Z,51.40
2022-12-08T16:53:03.848Z,51.30
2022-12-08T16:53:46.281Z,51.50
2022-12-08T16:54:28.657Z,51.90
2022-12-08T16:55:10.837Z,51.80
